Time;durP1;ratioP1;P1;durP2;ratioP2;P2;SDS_P1;SDS_P2;PMS_P1;PMS_P2;Temp;Humidity;BMP_temperature;BMP_pressure;BME280_temperature;BME280_humidity;BME280_pressure;Samples;Min_cycle;Max_cycle;Signal;HPM_P1;HPM_P2
2022/02/02 00:00:08;;;;;;;;;;;;;;;14.00;58.91;101155.88;1015712;29;1082;-64
2022/02/02 00:01:00;;;;;;;;;;;;;;;13.99;58.27;101154.16;1020144;29;1655;-64
2022/02/02 00:02:01;;;;;;;;;;;;;;;13.99;58.60;101158.66;1018260;29;729;-65
2022/02/02 00:02:57;;;;;;;;;;;;;;;13.98;58.33;101160.50;1021579;29;1735;-65
2022/02/02 00:03:51;;;;;;;;;;;;;;;13.99;58.81;101164.88;1021460;29;737;-64
2022/02/02 00:04:47;;;;;;;;;;;;;;;13.97;58.88;101161.50;1021433;29;727;-62
2022/02/02 00:06:35;;;;;;;;;;;;;;;13.98;58.15;101173.91;1020396;29;681;-62
2022/02/02 00:07:37;;;;;;;;;;;;;;;13.98;57.92;101173.91;1021512;29;710;-62
2022/02/02 00:09:13;;;;;;;;;;;;;;;13.98;58.59;101165.84;1021559;29;645;-62
2022/02/02 00:09:50;;;;;;;;;;;;;;;13.98;58.29;101176.56;1021497;29;1105;-62
2022/02/02 00:12:47;;;;;;;;;;;;;;;13.96;58.82;101158.94;1017106;29;753;-62
2022/02/02 00:19:33;;;;;;;;;;;;;;;13.93;58.80;101162.69;1017003;29;758;-63
2022/02/02 00:20:30;;;;;;;;;;;;;;;13.93;58.12;101173.41;1017600;29;772;-62
2022/02/02 00:21:26;;;;;;;;;;;;;;;13.93;58.34;101168.03;1016603;29;776;-62
2022/02/02 00:22:20;;;;;;;;;;;;;;;13.93;58.90;101184.13;1017195;29;780;-62
2022/02/02 00:23:17;;;;;;;;;;;;;;;13.93;58.19;101181.44;1016491;29;767;-64
2022/02/02 00:24:19;;;;;;;;;;;;;;;13.94;58.68;101184.97;1016558;29;761;-62
2022/02/02 00:25:21;;;;;;;;;;;;;;;13.93;58.07;101186.78;1016715;29;721;-62
2022/02/02 00:26:17;;;;;;;;;;;;;;;13.92;58.88;101193.13;1016693;29;720;-62
2022/02/02 00:27:11;;;;;;;;;;;;;;;13.90;58.17;101190.56;1016467;29;841;-63
2022/02/02 00:28:04;;;;;;;;;;;;;;;13.88;58.69;101197.84;1016571;29;820;-63
2022/02/02 00:29:00;;;;;;;;;;;;;;;13.88;58.99;101186.28;1016566;29;746;-62
2022/02/02 00:29:56;;;;;;;;;;;;;;;13.86;58.90;101196.22;1017069;29;866;-62
2022/02/02 00:30:46;;;;;;;;;;;;;;;13.87;57.94;101185.41;1018222;29;736;-63
2022/02/02 00:31:43;;;;;;;;;;;;;;;13.85;58.72;101178.44;1018210;29;853;-64
2022/02/02 00:33:28;;;;;;;;;;;;;;;13.87;58.41;101165.81;1018512;29;1038;-63
2022/02/02 00:34:23;;;;;;;;;;;;;;;13.88;58.22;101173.72;1018245;29;706;-63
2022/02/02 00:35:18;;;;;;;;;;;;;;;13.88;58.60;101184.44;1018160;29;763;-63
2022/02/02 00:36:14;;;;;;;;;;;;;;;13.88;59.03;101184.44;1017976;29;864;-63
2022/02/02 00:37:04;;;;;;;;;;;;;;;13.88;58.26;101175.56;1018090;29;696;-63
2022/02/02 00:37:55;;;;;;;;;;;;;;;13.87;58.44;101192.59;1017952;29;858;-64
2022/02/02 00:38:45;;;;;;;;;;;;;;;13.86;58.86;101189.06;1018048;29;635;-63
2022/02/02 00:39:35;;;;;;;;;;;;;;;13.84;58.96;101179.41;1019938;29;1765;-64
2022/02/02 00:40:26;;;;;;;;;;;;;;;13.83;58.39;101183.91;1021515;29;927;-64
2022/02/02 00:41:16;;;;;;;;;;;;;;;13.83;58.93;101181.25;1021448;29;882;-63
2022/02/02 00:42:07;;;;;;;;;;;;;;;13.82;58.11;101179.53;1021468;29;843;-64
2022/02/02 00:42:57;;;;;;;;;;;;;;;13.82;58.83;101176.00;1021449;29;772;-63
2022/02/02 00:43:54;;;;;;;;;;;;;;;13.83;58.40;101167.00;1021578;29;614;-64
2022/02/02 00:44:49;;;;;;;;;;;;;;;13.83;58.95;101175.88;1020937;29;756;-64
2022/02/02 00:45:44;;;;;;;;;;;;;;;13.83;59.15;101180.38;1020998;29;622;-63
2022/02/02 00:46:35;;;;;;;;;;;;;;;13.82;58.07;101179.53;1021498;29;843;-64
2022/02/02 00:47:26;;;;;;;;;;;;;;;13.82;58.37;101179.53;1021519;29;674;-63
2022/02/02 00:48:18;;;;;;;;;;;;;;;13.82;58.64;101184.03;1021382;29;959;-64
2022/02/02 00:49:08;;;;;;;;;;;;;;;13.83;58.29;101175.88;1020911;29;731;-64
2022/02/02 00:49:59;;;;;;;;;;;;;;;13.84;58.15;101182.94;1018048;29;1383;-62
2022/02/02 00:50:49;;;;;;;;;;;;;;;13.83;58.54;101180.38;1018652;28;898;-63
2022/02/02 00:51:47;;;;;;;;;;;;;;;13.82;58.45;101174.16;1018683;28;702;-63
2022/02/02 00:52:37;;;;;;;;;;;;;;;13.81;57.83;101188.53;1018004;29;723;-63
2022/02/02 00:53:27;;;;;;;;;;;;;;;13.82;58.60;101192.06;1018615;28;708;-64
2022/02/02 00:54:18;;;;;;;;;;;;;;;13.81;58.44;101198.38;1018889;28;756;-63
2022/02/02 00:55:08;;;;;;;;;;;;;;;13.80;58.45;101202.03;1018565;28;857;-63
2022/02/02 00:55:59;;;;;;;;;;;;;;;13.78;58.46;101191.47;1018773;29;780;-63
2022/02/02 00:56:49;;;;;;;;;;;;;;;13.78;58.10;101196.81;1019386;28;733;-63
2022/02/02 00:57:40;;;;;;;;;;;;;;;13.78;57.95;101204.84;1019347;28;727;-63
2022/02/02 00:58:31;;;;;;;;;;;;;;;13.79;57.77;101198.50;1019476;28;674;-63
2022/02/02 00:59:22;;;;;;;;;;;;;;;13.79;58.24;101192.31;1018939;29;1718;-65
2022/02/02 01:00:12;;;;;;;;;;;;;;;13.79;58.60;101192.31;1018784;29;770;-64
2022/02/02 01:01:03;;;;;;;;;;;;;;;13.79;58.53;101195.81;1019390;28;941;-64
2022/02/02 01:01:53;;;;;;;;;;;;;;;13.79;58.71;101189.63;1019432;28;725;-63
2022/02/02 01:02:44;;;;;;;;;;;;;;;13.79;58.31;101189.63;1017534;29;729;-64
2022/02/02 01:03:34;;;;;;;;;;;;;;;13.80;58.19;101191.31;1019218;28;1043;-63
2022/02/02 01:04:26;;;;;;;;;;;;;;;13.79;58.07;101189.63;1019329;28;768;-63
2022/02/02 01:05:16;;;;;;;;;;;;;;;13.78;57.92;101191.47;1018776;29;809;-63
2022/02/02 01:06:09;;;;;;;;;;;;;;;13.80;58.53;101196.66;1019449;28;770;-64
2022/02/02 01:07:11;;;;;;;;;;;;;;;13.79;57.86;101193.13;1018816;29;763;-63
2022/02/02 01:08:32;;;;;;;;;;;;;;;13.79;57.88;101184.28;1018800;29;831;-63
2022/02/02 01:10:19;;;;;;;;;;;;;;;13.79;58.71;101189.63;1018859;29;797;-64
2022/02/02 01:11:45;;;;;;;;;;;;;;;13.77;58.64;101184.38;1017390;29;749;-63
2022/02/02 01:14:16;;;;;;;;;;;;;;;13.78;58.63;101182.56;1017539;29;2015;-65
2022/02/02 01:17:08;;;;;;;;;;;;;;;13.78;58.79;101182.56;1013916;29;755;-63
2022/02/02 01:19:14;;;;;;;;;;;;;;;13.76;58.55;101184.50;1013942;29;805;-63
2022/02/02 01:20:32;;;;;;;;;;;;;;;13.77;58.50;101186.22;1014375;29;801;-63
2022/02/02 01:21:54;;;;;;;;;;;;;;;13.77;58.69;101189.75;1013969;29;650;-64
2022/02/02 01:28:27;;;;;;;;;;;;;;;13.74;58.65;101192.63;1018125;29;866;-65
2022/02/02 01:29:18;;;;;;;;;;;;;;;13.74;58.81;101199.81;1018238;29;771;-64
2022/02/02 01:30:09;;;;;;;;;;;;;;;13.73;58.05;101201.63;1018656;29;766;-64
2022/02/02 01:31:00;;;;;;;;;;;;;;;13.74;58.14;101215.88;1018697;29;728;-64
2022/02/02 01:31:51;;;;;;;;;;;;;;;13.73;58.06;101203.47;1018863;29;658;-64
2022/02/02 01:32:41;;;;;;;;;;;;;;;13.72;58.16;101216.00;1019198;28;689;-64
2022/02/02 01:33:32;;;;;;;;;;;;;;;13.72;58.74;101204.44;1019175;28;1480;-63
2022/02/02 01:34:22;;;;;;;;;;;;;;;13.70;58.36;101201.00;1019294;28;831;-63
2022/02/02 01:35:15;;;;;;;;;;;;;;;13.70;58.74;101195.66;1019197;28;703;-63
2022/02/02 01:36:06;;;;;;;;;;;;;;;13.70;57.99;101195.66;1018762;29;796;-63
2022/02/02 01:36:57;;;;;;;;;;;;;;;13.69;58.09;101197.47;1018709;29;708;-62
2022/02/02 01:37:47;;;;;;;;;;;;;;;13.69;58.22;101207.31;1019246;28;932;-63
2022/02/02 01:38:38;;;;;;;;;;;;;;;13.70;58.65;101198.31;1019229;28;769;-63
2022/02/02 01:39:30;;;;;;;;;;;;;;;13.69;58.30;101200.16;1018653;29;681;-63
2022/02/02 01:40:29;;;;;;;;;;;;;;;13.69;58.67;101193.94;1018186;29;727;-63
2022/02/02 01:41:26;;;;;;;;;;;;;;;13.70;58.23;101217.94;1017751;29;829;-63
2022/02/02 01:42:18;;;;;;;;;;;;;;;13.69;58.67;101210.84;1017627;29;689;-62
2022/02/02 01:43:14;;;;;;;;;;;;;;;13.70;57.81;101219.75;1017616;29;678;-63
2022/02/02 01:44:14;;;;;;;;;;;;;;;13.68;58.68;101219.00;1017803;29;830;-63
2022/02/02 01:45:14;;;;;;;;;;;;;;;13.67;58.43;101218.16;1017067;29;863;-64
2022/02/02 01:46:10;;;;;;;;;;;;;;;13.68;58.50;101221.69;1017549;29;763;-64
2022/02/02 01:47:01;;;;;;;;;;;;;;;13.68;58.69;101227.03;1013329;29;861;-63
2022/02/02 01:48:10;;;;;;;;;;;;;;;13.68;57.92;101235.06;1014424;29;739;-63
2022/02/02 01:50:04;;;;;;;;;;;;;;;13.69;58.38;101250.19;1018034;29;789;-63
2022/02/02 01:50:20;;;;;;;;;;;;;;;13.70;58.73;101243.84;1016824;29;1750;-62
2022/02/02 01:54:19;;;;;;;;;;;;;;;13.67;58.32;101249.44;1018128;29;780;-63
2022/02/02 01:55:16;;;;;;;;;;;;;;;13.67;57.91;101257.47;1017072;29;816;-62
2022/02/02 01:56:06;;;;;;;;;;;;;;;13.66;57.91;101258.41;1017025;29;708;-62
2022/02/02 01:56:59;;;;;;;;;;;;;;;13.65;58.19;101254.88;1017601;29;791;-63
2022/02/02 01:58:07;;;;;;;;;;;;;;;13.66;58.48;101259.28;1017181;29;635;-63
2022/02/02 01:59:05;;;;;;;;;;;;;;;13.66;57.77;101247.72;1018658;29;802;-63
2022/02/02 01:59:55;;;;;;;;;;;;;;;13.66;58.27;101258.41;1018089;29;785;-63
2022/02/02 02:00:46;;;;;;;;;;;;;;;13.64;58.58;101247.81;1013947;29;700;-62
2022/02/02 02:01:36;;;;;;;;;;;;;;;13.64;58.81;101244.28;1013925;29;927;-62
2022/02/02 02:02:27;;;;;;;;;;;;;;;13.62;58.62;101249.75;1017316;29;686;-63
2022/02/02 02:03:17;;;;;;;;;;;;;;;13.62;58.88;101249.75;1017486;29;1056;-63
2022/02/02 02:04:07;;;;;;;;;;;;;;;13.62;58.45;101248.88;1017567;29;686;-63
2022/02/02 02:04:58;;;;;;;;;;;;;;;13.63;57.87;101234.53;1017449;29;644;-63
2022/02/02 02:05:48;;;;;;;;;;;;;;;13.63;58.00;101231.84;1017552;29;842;-63
2022/02/02 02:06:39;;;;;;;;;;;;;;;13.63;58.45;101231.84;1017582;29;698;-63
2022/02/02 02:07:29;;;;;;;;;;;;;;;13.63;58.68;101230.03;1013195;29;781;-63
2022/02/02 02:08:20;;;;;;;;;;;;;;;13.64;58.43;101228.22;1013379;29;1730;-62
2022/02/02 02:09:10;;;;;;;;;;;;;;;13.64;58.04;101238.94;1011769;29;761;-62
2022/02/02 02:10:01;;;;;;;;;;;;;;;13.64;58.68;101230.88;1013873;29;833;-62
2022/02/02 02:10:51;;;;;;;;;;;;;;;13.63;58.98;101232.72;1017928;29;752;-62
2022/02/02 02:11:43;;;;;;;;;;;;;;;13.64;58.74;101250.50;1018072;29;706;-62
2022/02/02 02:12:52;;;;;;;;;;;;;;;13.64;58.09;101241.59;1018684;29;730;-62
2022/02/02 02:14:30;;;;;;;;;;;;;;;13.65;58.20;101246.00;1014342;29;710;-62
2022/02/02 02:15:07;;;;;;;;;;;;;;;13.64;58.81;101247.81;1015433;29;711;-62
2022/02/02 02:15:57;;;;;;;;;;;;;;;13.64;58.14;101255.00;1018556;29;726;-62
2022/02/02 02:16:48;;;;;;;;;;;;;;;13.64;58.47;101255.00;1021799;29;1680;-61
2022/02/02 02:17:38;;;;;;;;;;;;;;;13.64;58.13;101263.88;1021975;29;696;-61
2022/02/02 02:18:29;;;;;;;;;;;;;;;13.64;58.50;101266.56;1020115;29;1914;-61
2022/02/02 02:19:21;;;;;;;;;;;;;;;13.63;58.42;101262.16;1018051;29;825;-61
2022/02/02 02:20:12;;;;;;;;;;;;;;;13.62;58.83;101262.28;1018049;29;1106;-61
2022/02/02 02:21:09;;;;;;;;;;;;;;;13.61;58.20;101260.59;1014356;29;735;-61
2022/02/02 02:21:59;;;;;;;;;;;;;;;13.60;58.03;101262.41;1014378;29;847;-62
2022/02/02 02:22:50;;;;;;;;;;;;;;;13.61;58.50;101265.94;1017470;29;696;-62
2022/02/02 02:23:40;;;;;;;;;;;;;;;13.60;58.98;101256.19;1018126;29;764;-62
2022/02/02 02:24:31;;;;;;;;;;;;;;;13.59;58.82;101263.38;1017873;29;837;-62
2022/02/02 02:25:21;;;;;;;;;;;;;;;13.59;58.83;101262.53;1018023;29;679;-64
2022/02/02 02:26:19;;;;;;;;;;;;;;;13.61;58.02;101268.63;1018049;29;745;-64
2022/02/02 02:27:12;;;;;;;;;;;;;;;13.61;58.46;101265.94;1017149;29;717;-64
2022/02/02 02:29:37;;;;;;;;;;;;;;;13.63;58.87;101267.53;1017748;29;803;-64
2022/02/02 02:31:44;;;;;;;;;;;;;;;13.62;58.03;101259.59;1020831;29;714;-64
2022/02/02 02:40:02;;;;;;;;;;;;;;;13.55;59.02;101246.66;1022894;28;653;-62
2022/02/02 02:55:50;;;;;;;;;;;;;;;13.53;58.40;101253.09;1020705;29;728;-63
2022/02/02 02:56:44;;;;;;;;;;;;;;;13.53;59.00;101239.69;1022156;29;1722;-64
2022/02/02 02:57:47;;;;;;;;;;;;;;;13.52;58.82;101257.59;1021749;29;721;-64
2022/02/02 02:58:47;;;;;;;;;;;;;;;13.52;58.86;101259.41;1022262;29;834;-63
2022/02/02 03:00:05;;;;;;;;;;;;;;;13.52;58.67;101248.69;1022404;29;674;-64
2022/02/02 03:01:14;;;;;;;;;;;;;;;13.50;59.08;101253.31;1022290;29;707;-63
2022/02/02 03:49:46;;;;;;;;;;;;;;;13.46;58.76;101267.84;1020616;29;663;-60
2022/02/02 03:58:18;;;;;;;;;;;;;;;13.45;58.62;101269.69;1022806;28;698;-60
2022/02/02 04:01:47;;;;;;;;;;;;;;;13.42;58.99;101264.56;1022572;28;776;-60
2022/02/02 04:02:47;;;;;;;;;;;;;;;13.42;58.99;101259.22;1021457;29;848;-61
2022/02/02 04:03:53;;;;;;;;;;;;;;;13.41;58.46;101254.81;1022017;29;959;-61
2022/02/02 04:04:54;;;;;;;;;;;;;;;13.40;58.50;101253.09;1021564;29;911;-61
2022/02/02 04:05:48;;;;;;;;;;;;;;;13.40;58.72;101266.50;1021547;29;677;-61
2022/02/02 04:06:55;;;;;;;;;;;;;;;13.40;58.42;101263.81;1021466;29;837;-61
2022/02/02 04:07:52;;;;;;;;;;;;;;;13.40;58.40;101268.31;1018571;29;806;-60
2022/02/02 04:08:42;;;;;;;;;;;;;;;13.39;58.63;101275.47;1018116;29;804;-61
2022/02/02 04:09:35;;;;;;;;;;;;;;;13.39;58.34;101270.13;1018685;28;626;-61
2022/02/02 04:10:25;;;;;;;;;;;;;;;13.38;58.16;101260.38;1017153;29;681;-62
2022/02/02 04:11:25;;;;;;;;;;;;;;;13.39;58.14;101261.25;1018659;28;840;-62
2022/02/02 04:12:40;;;;;;;;;;;;;;;13.39;59.03;101270.13;1018222;29;729;-62
2022/02/02 04:14:48;;;;;;;;;;;;;;;13.38;58.66;101263.06;1018204;29;650;-62
2022/02/02 04:37:25;;;;;;;;;;;;;;;13.41;58.73;101270.88;1017590;29;1019;-61
2022/02/02 04:38:24;;;;;;;;;;;;;;;13.36;58.76;101296.25;1021327;29;831;-65
2022/02/02 04:53:55;;;;;;;;;;;;;;;13.39;59.16;101325.50;1013856;29;1911;-62
2022/02/02 04:56:22;;;;;;;;;;;;;;;13.38;58.76;101319.28;1010551;29;1259;-64
2022/02/02 05:00:40;;;;;;;;;;;;;;;13.38;58.85;101326.44;1016152;29;767;-62
2022/02/02 05:02:11;;;;;;;;;;;;;;;13.38;59.07;101324.63;1014266;29;855;-62
2022/02/02 05:03:32;;;;;;;;;;;;;;;13.38;59.13;101334.47;1010290;29;1653;-62
2022/02/02 05:06:51;;;;;;;;;;;;;;;13.38;58.60;101348.72;1011641;29;678;-62
2022/02/02 05:07:51;;;;;;;;;;;;;;;13.39;59.19;101346.91;1009954;29;685;-62
2022/02/02 05:08:51;;;;;;;;;;;;;;;13.40;59.18;101348.63;1010317;29;1151;-62
2022/02/02 05:10:14;;;;;;;;;;;;;;;13.40;58.63;101354.84;1010531;29;666;-62
2022/02/02 05:11:16;;;;;;;;;;;;;;;13.42;59.15;101347.56;1010466;29;653;-62
2022/02/02 05:12:47;;;;;;;;;;;;;;;13.46;58.87;101342.81;1010979;29;672;-62
2022/02/02 05:19:13;;;;;;;;;;;;;;;13.77;57.80;101341.56;1011371;29;765;-62
2022/02/02 05:44:14;;;;;;;;;;;;;;;14.24;57.61;101336.34;1010902;29;743;-62
2022/02/02 05:52:12;;;;;;;;;;;;;;;14.30;57.29;101345.78;1017468;29;1685;-62
2022/02/02 05:53:02;;;;;;;;;;;;;;;14.33;57.09;101352.75;1018042;29;983;-62
2022/02/02 05:53:52;;;;;;;;;;;;;;;14.31;57.64;101357.34;1013599;29;1228;-63
2022/02/02 05:54:43;;;;;;;;;;;;;;;14.31;57.37;101365.41;1013808;29;647;-62
2022/02/02 05:55:33;;;;;;;;;;;;;;;14.32;56.63;101359.06;1013094;29;790;-62
2022/02/02 05:56:24;;;;;;;;;;;;;;;14.31;56.86;101374.31;1013963;29;685;-62
2022/02/02 05:57:14;;;;;;;;;;;;;;;14.32;57.09;101375.16;1014846;29;796;-61
2022/02/02 05:58:04;;;;;;;;;;;;;;;14.32;57.24;101375.16;1013697;29;772;-62
2022/02/02 05:58:55;;;;;;;;;;;;;;;14.35;56.96;101382.94;1013706;29;693;-63
2022/02/02 05:59:45;;;;;;;;;;;;;;;14.34;57.07;101379.41;1013501;29;795;-62
2022/02/02 06:00:39;;;;;;;;;;;;;;;14.33;57.31;101376.88;1013635;29;686;-62
2022/02/02 06:01:29;;;;;;;;;;;;;;;14.32;57.45;101380.53;1013564;29;851;-61
2022/02/02 06:02:20;;;;;;;;;;;;;;;14.34;57.26;101379.41;1013659;29;746;-61
2022/02/02 06:03:10;;;;;;;;;;;;;;;14.35;57.40;101372.22;1013673;29;793;-61
2022/02/02 06:04:01;;;;;;;;;;;;;;;14.34;57.37;101370.50;1014721;29;706;-61
2022/02/02 06:04:51;;;;;;;;;;;;;;;14.34;56.96;101375.88;1013666;29;615;-61
2022/02/02 06:05:42;;;;;;;;;;;;;;;14.34;57.41;101383.91;1013624;29;840;-61
2022/02/02 06:06:32;;;;;;;;;;;;;;;14.33;56.80;101387.59;1013700;29;690;-62
2022/02/02 06:07:22;;;;;;;;;;;;;;;14.32;57.23;101391.25;1013613;29;683;-62
2022/02/02 06:08:13;;;;;;;;;;;;;;;14.31;57.65;101389.53;1013660;29;719;-62
2022/02/02 06:09:03;;;;;;;;;;;;;;;14.31;57.17;101394.88;1013567;29;723;-61
2022/02/02 06:09:54;;;;;;;;;;;;;;;14.32;57.64;101401.97;1013691;29;1652;-62
2022/02/02 06:10:45;;;;;;;;;;;;;;;14.31;57.37;101400.25;1018209;29;685;-62
2022/02/02 06:11:37;;;;;;;;;;;;;;;14.31;57.80;101401.09;1017599;29;712;-61
2022/02/02 06:12:27;;;;;;;;;;;;;;;14.30;57.18;101404.75;1017484;29;705;-61
2022/02/02 06:13:18;;;;;;;;;;;;;;;14.29;57.27;101405.72;1017983;29;1902;-62
2022/02/02 06:14:08;;;;;;;;;;;;;;;14.29;57.63;101397.69;1018532;29;856;-62
2022/02/02 06:15:00;;;;;;;;;;;;;;;14.30;58.01;101394.03;1017928;29;1539;-61
2022/02/02 06:15:50;;;;;;;;;;;;;;;14.30;57.48;101374.41;1016478;29;1574;-61
2022/02/02 06:16:41;;;;;;;;;;;;;;;14.31;57.58;101385.03;1015439;29;1590;-61
2022/02/02 06:17:31;;;;;;;;;;;;;;;14.31;57.03;101379.66;1014812;29;1591;-61
2022/02/02 06:18:26;;;;;;;;;;;;;;;14.32;57.87;101377.84;1015311;29;1525;-62
2022/02/02 06:19:16;;;;;;;;;;;;;;;14.32;57.78;101384.06;1017957;29;1609;-61
2022/02/02 06:20:07;;;;;;;;;;;;;;;14.31;57.38;101393.06;1014877;29;1592;-62
2022/02/02 06:20:58;;;;;;;;;;;;;;;14.31;57.80;101384.16;1016092;29;1558;-62
2022/02/02 06:21:48;;;;;;;;;;;;;;;14.29;57.32;101392.31;1016978;29;1677;-61
2022/02/02 06:22:38;;;;;;;;;;;;;;;14.30;57.25;101394.03;1016156;29;1465;-61
2022/02/02 06:23:29;;;;;;;;;;;;;;;14.32;57.50;101402.81;1017461;29;1633;-61
2022/02/02 06:24:20;;;;;;;;;;;;;;;14.32;57.87;101391.25;1016130;29;1608;-62
2022/02/02 06:25:10;;;;;;;;;;;;;;;14.34;57.27;101392.81;1017690;29;1554;-61
2022/02/02 06:26:00;;;;;;;;;;;;;;;14.35;57.29;101391.00;1015388;29;1550;-62
2022/02/02 06:26:51;;;;;;;;;;;;;;;14.35;57.26;101391.00;1014670;29;1349;-61
2022/02/02 06:27:41;;;;;;;;;;;;;;;14.36;57.27;101398.06;1015524;29;1573;-61
2022/02/02 06:28:32;;;;;;;;;;;;;;;14.37;57.19;101403.34;1015036;29;1388;-61
2022/02/02 06:29:23;;;;;;;;;;;;;;;14.37;57.28;101405.16;1016762;29;1563;-62
2022/02/02 06:30:13;;;;;;;;;;;;;;;14.37;57.68;101410.50;1014590;29;1504;-62
2022/02/02 06:31:05;;;;;;;;;;;;;;;14.36;57.27;101403.44;1015701;29;1218;-61
2022/02/02 06:31:55;;;;;;;;;;;;;;;14.38;57.67;101412.22;1013437;29;636;-61
2022/02/02 06:32:47;;;;;;;;;;;;;;;14.39;57.03;101409.44;1016877;29;1300;-61
2022/02/02 06:33:38;;;;;;;;;;;;;;;14.41;57.36;101412.06;1016563;29;1301;-62
2022/02/02 06:34:28;;;;;;;;;;;;;;;14.40;57.65;101415.66;1017423;29;1466;-60
2022/02/02 06:35:19;;;;;;;;;;;;;;;14.38;58.03;101412.22;1015060;29;1468;-60
2022/02/02 06:36:10;;;;;;;;;;;;;;;14.37;57.40;101408.69;1016124;29;1555;-60
2022/02/02 06:37:01;;;;;;;;;;;;;;;14.38;57.41;101401.50;1015386;29;1182;-60
2022/02/02 06:37:51;;;;;;;;;;;;;;;14.39;57.30;101411.25;1016506;29;1628;-60
2022/02/02 06:38:42;;;;;;;;;;;;;;;14.39;57.48;101411.25;1016076;29;1466;-61
2022/02/02 06:39:33;;;;;;;;;;;;;;;14.39;57.32;101422.00;1012261;29;1241;-61
2022/02/02 06:40:23;;;;;;;;;;;;;;;14.41;57.52;101418.28;1014469;29;1262;-61
2022/02/02 06:41:14;;;;;;;;;;;;;;;14.43;57.76;101420.84;1017657;29;1150;-60
2022/02/02 06:42:04;;;;;;;;;;;;;;;14.45;57.61;101425.13;1013821;29;1257;-61
2022/02/02 06:42:55;;;;;;;;;;;;;;;14.45;57.27;101416.22;1016214;29;1289;-61
2022/02/02 06:43:46;;;;;;;;;;;;;;;14.45;57.66;101418.91;1015110;29;1358;-61
2022/02/02 06:44:36;;;;;;;;;;;;;;;14.47;57.61;101416.97;1015199;29;1178;-61
2022/02/02 06:45:26;;;;;;;;;;;;;;;14.47;57.52;101416.97;1017095;29;1138;-61
2022/02/02 06:46:18;;;;;;;;;;;;;;;14.47;57.96;101423.22;1015968;29;1170;-61
2022/02/02 06:47:09;;;;;;;;;;;;;;;14.48;57.72;101426.75;1016383;29;1319;-61
2022/02/02 06:47:59;;;;;;;;;;;;;;;14.45;57.39;101435.00;1016260;29;1158;-60
2022/02/02 06:48:49;;;;;;;;;;;;;;;14.44;57.21;101433.28;1016495;29;1900;-61
2022/02/02 06:49:43;;;;;;;;;;;;;;;14.45;57.92;101429.63;1017231;29;1029;-61
2022/02/02 06:50:38;;;;;;;;;;;;;;;14.44;57.97;101444.00;1016846;29;1904;-61
2022/02/02 06:52:15;;;;;;;;;;;;;;;14.43;57.34;101448.53;1017799;29;880;-61
2022/02/02 06:52:42;;;;;;;;;;;;;;;14.44;57.84;101452.06;1014916;29;1823;-59
2022/02/02 06:53:38;;;;;;;;;;;;;;;14.42;58.21;101449.47;1015443;29;1972;-61
2022/02/02 06:54:41;;;;;;;;;;;;;;;14.38;57.82;101457.81;1018076;29;1780;-61
2022/02/02 06:55:42;;;;;;;;;;;;;;;14.38;58.01;101456.00;1017230;29;1578;-61
2022/02/02 06:57:10;;;;;;;;;;;;;;;14.38;57.55;101460.50;1017447;29;710;-61
2022/02/02 06:57:51;;;;;;;;;;;;;;;14.36;57.97;101457.06;1018463;29;854;-61
2022/02/02 06:58:57;;;;;;;;;;;;;;;14.36;57.54;101446.34;1014747;29;1865;-60
2022/02/02 07:02:01;;;;;;;;;;;;;;;14.36;57.71;101455.25;1015592;29;970;-61
2022/02/02 07:03:04;;;;;;;;;;;;;;;14.39;58.00;101452.34;1013342;29;700;-63
2022/02/02 07:04:03;;;;;;;;;;;;;;;14.41;57.46;101455.81;1013880;29;794;-63
2022/02/02 07:05:10;;;;;;;;;;;;;;;14.40;58.26;101459.47;1018175;29;1855;-64
2022/02/02 07:06:20;;;;;;;;;;;;;;;14.40;57.66;101461.25;1013602;29;1710;-63
2022/02/02 07:07:23;;;;;;;;;;;;;;;14.43;57.91;101456.56;1011388;29;1481;-63
2022/02/02 07:10:10;;;;;;;;;;;;;;;14.42;57.95;101456.66;1016077;29;1442;-64
2022/02/02 07:10:40;;;;;;;;;;;;;;;14.43;58.09;101450.34;1016004;29;1561;-64
2022/02/02 07:11:55;;;;;;;;;;;;;;;14.43;58.24;101453.88;1016683;29;1271;-64
2022/02/02 07:15:11;;;;;;;;;;;;;;;14.42;58.46;101452.16;1018200;29;1496;-64
2022/02/02 07:17:07;;;;;;;;;;;;;;;14.46;58.06;101452.81;1017738;29;1338;-64
2022/02/02 07:22:23;;;;;;;;;;;;;;;14.43;57.95;101466.44;1018279;29;1501;-64
2022/02/02 07:23:15;;;;;;;;;;;;;;;14.44;57.81;101469.00;1015304;29;1345;-65
2022/02/02 07:24:26;;;;;;;;;;;;;;;14.42;57.61;101462.88;1016035;29;1453;-65
2022/02/02 07:27:35;;;;;;;;;;;;;;;14.43;58.04;101463.75;1018147;29;1686;-64
2022/02/02 07:28:38;;;;;;;;;;;;;;;14.42;57.58;101468.25;1017273;29;1490;-64
2022/02/02 07:31:09;;;;;;;;;;;;;;;14.39;57.90;101468.44;1017733;29;1383;-64
2022/02/02 07:31:41;;;;;;;;;;;;;;;14.38;58.11;101472.09;1016358;29;1619;-64
2022/02/02 07:32:40;;;;;;;;;;;;;;;14.38;57.51;101473.91;1017138;29;1494;-64
2022/02/02 07:33:34;;;;;;;;;;;;;;;14.36;57.72;101470.47;1017040;29;1961;-64
2022/02/02 07:34:29;;;;;;;;;;;;;;;14.37;58.30;101474.88;1016508;29;1553;-64
2022/02/02 07:36:14;;;;;;;;;;;;;;;14.40;57.71;101483.59;1018198;29;1489;-64
2022/02/02 07:37:05;;;;;;;;;;;;;;;14.39;58.06;101489.88;1016336;29;1717;-63
2022/02/02 07:37:56;;;;;;;;;;;;;;;14.39;58.00;101481.84;1014936;29;1625;-64
2022/02/02 07:38:46;;;;;;;;;;;;;;;14.40;57.58;101488.06;1016778;29;1630;-64
2022/02/02 07:39:37;;;;;;;;;;;;;;;14.40;58.00;101485.38;1018740;29;866;-64
2022/02/02 07:40:27;;;;;;;;;;;;;;;14.42;57.75;101496.91;1021207;29;751;-64
2022/02/02 07:41:18;;;;;;;;;;;;;;;14.43;57.97;101495.94;1018715;29;1957;-63
2022/02/02 07:42:08;;;;;;;;;;;;;;;14.43;57.55;101496.78;1017125;29;711;-64
2022/02/02 07:42:59;;;;;;;;;;;;;;;14.47;58.03;101498.28;1017120;29;714;-63
2022/02/02 07:43:49;;;;;;;;;;;;;;;14.47;57.44;101490.25;1014564;29;1682;-63
2022/02/02 07:44:41;;;;;;;;;;;;;;;14.48;57.43;101493.78;1013706;29;701;-63
2022/02/02 07:45:32;;;;;;;;;;;;;;;14.48;57.37;101496.47;1016984;29;1397;-63
2022/02/02 07:46:26;;;;;;;;;;;;;;;14.50;57.82;101497.22;1016319;29;1454;-65
2022/02/02 07:47:16;;;;;;;;;;;;;;;14.48;58.04;101500.00;1017187;29;1691;-64
2022/02/02 07:48:07;;;;;;;;;;;;;;;14.48;57.57;101489.28;1015851;29;1489;-63
2022/02/02 07:48:58;;;;;;;;;;;;;;;14.49;57.54;101498.19;1013117;29;901;-63
2022/02/02 07:49:50;;;;;;;;;;;;;;;14.48;57.28;101491.97;1013769;29;984;-63
2022/02/02 07:50:40;;;;;;;;;;;;;;;14.49;58.10;101493.69;1013755;29;667;-63
2022/02/02 07:51:33;;;;;;;;;;;;;;;14.48;57.67;101488.44;1013677;29;792;-63
2022/02/02 07:52:27;;;;;;;;;;;;;;;14.47;58.67;101497.44;1013710;29;876;-63
2022/02/02 07:53:22;;;;;;;;;;;;;;;14.49;59.71;101504.41;1013619;29;1976;-62
2022/02/02 07:54:19;;;;;;;;;;;;;;;14.52;60.30;101506.00;1016836;29;1957;-65
2022/02/02 07:55:12;;;;;;;;;;;;;;;14.59;62.35;101500.09;1014875;29;1399;-62
2022/02/02 07:56:08;;;;;;;;;;;;;;;14.67;63.06;101507.59;1016617;29;1730;-63
2022/02/02 07:56:59;;;;;;;;;;;;;;;14.76;62.33;101503.38;1017678;29;813;-63
2022/02/02 07:57:51;;;;;;;;;;;;;;;14.79;62.50;101512.09;1017611;29;702;-63
2022/02/02 07:58:46;;;;;;;;;;;;;;;14.81;62.27;101511.97;1015057;29;1763;-62
2022/02/02 07:59:46;;;;;;;;;;;;;;;14.84;63.30;101515.31;1014765;29;1864;-62
2022/02/02 08:00:37;;;;;;;;;;;;;;;14.88;62.86;101513.22;1016816;29;1490;-62
2022/02/02 08:01:27;;;;;;;;;;;;;;;14.88;62.07;101514.09;1017651;29;905;-62
2022/02/02 08:02:21;;;;;;;;;;;;;;;14.90;62.28;101514.84;1017565;29;769;-62
2022/02/02 08:03:14;;;;;;;;;;;;;;;14.88;62.62;101503.34;1017627;29;777;-63
2022/02/02 08:04:04;;;;;;;;;;;;;;;14.88;61.65;101511.41;1017314;29;1807;-62
2022/02/02 08:04:55;;;;;;;;;;;;;;;14.90;61.57;101517.53;1017044;29;710;-63
2022/02/02 08:05:48;;;;;;;;;;;;;;;14.91;61.63;101516.56;1017202;29;725;-61
2022/02/02 08:06:41;;;;;;;;;;;;;;;14.92;61.89;101515.59;1016881;29;878;-63
2022/02/02 08:07:40;;;;;;;;;;;;;;;14.96;62.24;101510.00;1016751;29;797;-63
2022/02/02 08:08:34;;;;;;;;;;;;;;;14.96;61.49;101520.75;1016330;29;1369;-62
2022/02/02 08:10:19;;;;;;;;;;;;;;;14.96;61.51;101512.69;1015579;29;1593;-64
2022/02/02 08:11:11;;;;;;;;;;;;;;;14.97;60.94;101517.09;1013008;29;738;-63
2022/02/02 08:12:03;;;;;;;;;;;;;;;14.99;60.83;101517.84;1014118;29;694;-63